Birch Island, Maine
Current Conditions -  °F | °C
As of 9:53 AM on Monday 22 Dec 2014 (Local Time) from KIWI Reporting Station
Overcast Overcast  
Wind Chill: 33°   Ceiling: 5500
Heat Index: 33°   Visibility: 10mi
Dew Point: 27°   Wind: 0mph
Humidity: 78%   Direction: NA
Pressure: 30.45"   Gusts: NA
Location:  43.903°N, 69.9809°W
Report Text: KIWI 221453Z AUTO 00000KT 10SM OVC055 01/M03 A3045 RMK AO2 SLP311 T00061028 50005
Loading
Personal Weather Stations






























Interactive Weather Map New forecast layout! Learn more

10-Day Weather Forecast

Advertisements
Track Severe Weather on mobile